sensor_id;sensor_type;location;lat;lon;timestamp;P1;durP1;ratioP1;P2;durP2;ratioP2
62006;SDS011;47963;53.008;6.754;2022-12-26T00:01:07;111.10;;;33.33;;
62006;SDS011;47963;53.008;6.754;2022-12-26T00:03:34;108.93;;;32.78;;
62006;SDS011;47963;53.008;6.754;2022-12-26T00:06:00;83.65;;;32.00;;
62006;SDS011;47963;53.008;6.754;2022-12-26T00:08:26;85.07;;;30.52;;
62006;SDS011;47963;53.008;6.754;2022-12-26T00:10:51;77.47;;;30.67;;
62006;SDS011;47963;53.008;6.754;2022-12-26T00:13:17;100.50;;;33.78;;
62006;SDS011;47963;53.008;6.754;2022-12-26T00:15:43;87.07;;;31.20;;
62006;SDS011;47963;53.008;6.754;2022-12-26T00:18:08;81.97;;;32.00;;
62006;SDS011;47963;53.008;6.754;2022-12-26T00:20:34;72.40;;;30.70;;
62006;SDS011;47963;53.008;6.754;2022-12-26T00:23:00;75.80;;;32.13;;
62006;SDS011;47963;53.008;6.754;2022-12-26T00:25:26;90.40;;;34.13;;
62006;SDS011;47963;53.008;6.754;2022-12-26T00:27:51;69.88;;;31.77;;
62006;SDS011;47963;53.008;6.754;2022-12-26T00:30:17;82.18;;;31.65;;
62006;SDS011;47963;53.008;6.754;2022-12-26T00:32:43;75.15;;;31.77;;
62006;SDS011;47963;53.008;6.754;2022-12-26T00:35:09;72.82;;;31.73;;
62006;SDS011;47963;53.008;6.754;2022-12-26T00:37:35;73.97;;;31.77;;
62006;SDS011;47963;53.008;6.754;2022-12-26T00:40:00;64.53;;;29.92;;
62006;SDS011;47963;53.008;6.754;2022-12-26T00:42:27;71.88;;;30.27;;
62006;SDS011;47963;53.008;6.754;2022-12-26T00:44:52;73.03;;;31.58;;
62006;SDS011;47963;53.008;6.754;2022-12-26T00:47:18;69.65;;;29.38;;
62006;SDS011;47963;53.008;6.754;2022-12-26T00:49:44;66.25;;;30.85;;
62006;SDS011;47963;53.008;6.754;2022-12-26T00:52:09;70.93;;;30.17;;
62006;SDS011;47963;53.008;6.754;2022-12-26T00:54:35;83.90;;;33.53;;
62006;SDS011;47963;53.008;6.754;2022-12-26T00:57:01;78.93;;;32.00;;
62006;SDS011;47963;53.008;6.754;2022-12-26T00:59:26;73.35;;;32.00;;
62006;SDS011;47963;53.008;6.754;2022-12-26T01:01:52;71.05;;;31.90;;
62006;SDS011;47963;53.008;6.754;2022-12-26T01:04:18;77.65;;;32.10;;
62006;SDS011;47963;53.008;6.754;2022-12-26T01:06:43;77.85;;;33.05;;
62006;SDS011;47963;53.008;6.754;2022-12-26T01:09:09;74.18;;;32.17;;
62006;SDS011;47963;53.008;6.754;2022-12-26T01:11:39;80.30;;;32.45;;
62006;SDS011;47963;53.008;6.754;2022-12-26T01:14:15;88.00;;;33.75;;
62006;SDS011;47963;53.008;6.754;2022-12-26T01:16:42;66.78;;;30.05;;
62006;SDS011;47963;53.008;6.754;2022-12-26T01:19:10;69.93;;;30.88;;
62006;SDS011;47963;53.008;6.754;2022-12-26T01:21:36;69.80;;;30.92;;
62006;SDS011;47963;53.008;6.754;2022-12-26T01:24:02;59.30;;;28.17;;
62006;SDS011;47963;53.008;6.754;2022-12-26T01:26:29;68.72;;;30.42;;
62006;SDS011;47963;53.008;6.754;2022-12-26T01:28:54;64.20;;;30.60;;
62006;SDS011;47963;53.008;6.754;2022-12-26T01:31:20;67.35;;;29.90;;
62006;SDS011;47963;53.008;6.754;2022-12-26T01:33:46;66.68;;;29.35;;
62006;SDS011;47963;53.008;6.754;2022-12-26T01:36:12;73.72;;;30.65;;
62006;SDS011;47963;53.008;6.754;2022-12-26T01:38:39;73.55;;;29.92;;
62006;SDS011;47963;53.008;6.754;2022-12-26T01:41:05;62.22;;;28.48;;
62006;SDS011;47963;53.008;6.754;2022-12-26T01:46:25;57.30;;;27.45;;
62006;SDS011;47963;53.008;6.754;2022-12-26T01:49:11;52.33;;;25.73;;
62006;SDS011;47963;53.008;6.754;2022-12-26T01:51:38;50.13;;;26.13;;
62006;SDS011;47963;53.008;6.754;2022-12-26T01:54:09;47.78;;;23.75;;
62006;SDS011;47963;53.008;6.754;2022-12-26T01:56:37;55.20;;;24.85;;
62006;SDS011;47963;53.008;6.754;2022-12-26T01:59:10;52.47;;;24.17;;
62006;SDS011;47963;53.008;6.754;2022-12-26T02:01:48;43.90;;;22.05;;
62006;SDS011;47963;53.008;6.754;2022-12-26T02:04:18;45.90;;;22.23;;
62006;SDS011;47963;53.008;6.754;2022-12-26T02:07:06;46.47;;;22.50;;
62006;SDS011;47963;53.008;6.754;2022-12-26T02:09:32;46.40;;;21.90;;
62006;SDS011;47963;53.008;6.754;2022-12-26T02:12:04;55.90;;;23.42;;
62006;SDS011;47963;53.008;6.754;2022-12-26T02:14:35;48.97;;;23.35;;
62006;SDS011;47963;53.008;6.754;2022-12-26T02:17:02;54.83;;;23.60;;
62006;SDS011;47963;53.008;6.754;2022-12-26T02:30:22;47.42;;;21.83;;
62006;SDS011;47963;53.008;6.754;2022-12-26T02:36:04;53.92;;;23.45;;
62006;SDS011;47963;53.008;6.754;2022-12-26T02:49:20;53.53;;;25.48;;
62006;SDS011;47963;53.008;6.754;2022-12-26T02:52:22;53.27;;;25.73;;
62006;SDS011;47963;53.008;6.754;2022-12-26T02:55:34;49.28;;;25.55;;
62006;SDS011;47963;53.008;6.754;2022-12-26T02:58:24;58.45;;;27.45;;
62006;SDS011;47963;53.008;6.754;2022-12-26T03:01:25;57.83;;;27.85;;
62006;SDS011;47963;53.008;6.754;2022-12-26T03:04:15;61.85;;;29.35;;
62006;SDS011;47963;53.008;6.754;2022-12-26T03:07:02;58.47;;;28.67;;
62006;SDS011;47963;53.008;6.754;2022-12-26T03:09:49;60.55;;;30.95;;
62006;SDS011;47963;53.008;6.754;2022-12-26T03:12:38;59.47;;;29.95;;
62006;SDS011;47963;53.008;6.754;2022-12-26T03:15:25;58.42;;;31.73;;
62006;SDS011;47963;53.008;6.754;2022-12-26T03:17:57;66.90;;;34.40;;
62006;SDS011;47963;53.008;6.754;2022-12-26T03:20:27;64.03;;;33.00;;
62006;SDS011;47963;53.008;6.754;2022-12-26T03:22:56;63.13;;;34.60;;
62006;SDS011;47963;53.008;6.754;2022-12-26T03:28:32;71.70;;;35.90;;
62006;SDS011;47963;53.008;6.754;2022-12-26T03:30:58;72.00;;;37.72;;
62006;SDS011;47963;53.008;6.754;2022-12-26T03:33:29;77.80;;;39.45;;
62006;SDS011;47963;53.008;6.754;2022-12-26T03:39:08;76.45;;;40.58;;
62006;SDS011;47963;53.008;6.754;2022-12-26T03:42:25;75.30;;;39.70;;
62006;SDS011;47963;53.008;6.754;2022-12-26T03:45:16;76.30;;;40.33;;
62006;SDS011;47963;53.008;6.754;2022-12-26T03:48:06;85.10;;;43.47;;
62006;SDS011;47963;53.008;6.754;2022-12-26T03:50:57;82.60;;;42.33;;
62006;SDS011;47963;53.008;6.754;2022-12-26T03:53:52;90.63;;;43.40;;
62006;SDS011;47963;53.008;6.754;2022-12-26T03:56:46;86.82;;;44.65;;
62006;SDS011;47963;53.008;6.754;2022-12-26T03:59:45;96.88;;;44.60;;
62006;SDS011;47963;53.008;6.754;2022-12-26T04:02:36;98.22;;;45.38;;
62006;SDS011;47963;53.008;6.754;2022-12-26T04:05:23;93.40;;;45.67;;
62006;SDS011;47963;53.008;6.754;2022-12-26T04:08:23;98.90;;;46.40;;
62006;SDS011;47963;53.008;6.754;2022-12-26T04:11:15;100.47;;;45.83;;
62006;SDS011;47963;53.008;6.754;2022-12-26T04:16:58;99.60;;;44.65;;
62006;SDS011;47963;53.008;6.754;2022-12-26T04:20:21;101.45;;;45.67;;
62006;SDS011;47963;53.008;6.754;2022-12-26T04:25:45;96.38;;;46.33;;
62006;SDS011;47963;53.008;6.754;2022-12-26T04:28:41;102.90;;;46.10;;
62006;SDS011;47963;53.008;6.754;2022-12-26T04:34:27;105.28;;;47.63;;
62006;SDS011;47963;53.008;6.754;2022-12-26T04:37:34;97.47;;;47.20;;
62006;SDS011;47963;53.008;6.754;2022-12-26T04:40:25;101.65;;;48.13;;
62006;SDS011;47963;53.008;6.754;2022-12-26T04:43:13;96.97;;;48.65;;
62006;SDS011;47963;53.008;6.754;2022-12-26T04:45:59;97.22;;;47.97;;
62006;SDS011;47963;53.008;6.754;2022-12-26T04:48:25;98.97;;;47.58;;
62006;SDS011;47963;53.008;6.754;2022-12-26T04:51:09;97.03;;;47.00;;
62006;SDS011;47963;53.008;6.754;2022-12-26T04:53:35;94.25;;;47.83;;
62006;SDS011;47963;53.008;6.754;2022-12-26T04:56:01;91.45;;;45.67;;
62006;SDS011;47963;53.008;6.754;2022-12-26T04:58:28;92.05;;;47.08;;
62006;SDS011;47963;53.008;6.754;2022-12-26T05:00:54;85.60;;;45.42;;
62006;SDS011;47963;53.008;6.754;2022-12-26T05:03:42;93.00;;;46.90;;
62006;SDS011;47963;53.008;6.754;2022-12-26T05:06:26;85.85;;;45.00;;
62006;SDS011;47963;53.008;6.754;2022-12-26T05:09:11;87.20;;;45.85;;
62006;SDS011;47963;53.008;6.754;2022-12-26T05:11:58;88.32;;;45.15;;
62006;SDS011;47963;53.008;6.754;2022-12-26T05:14:23;78.32;;;43.17;;
62006;SDS011;47963;53.008;6.754;2022-12-26T05:16:49;70.95;;;41.45;;
62006;SDS011;47963;53.008;6.754;2022-12-26T05:19:33;76.22;;;42.85;;
62006;SDS011;47963;53.008;6.754;2022-12-26T05:22:18;75.45;;;42.97;;
62006;SDS011;47963;53.008;6.754;2022-12-26T05:25:03;74.65;;;42.38;;
62006;SDS011;47963;53.008;6.754;2022-12-26T05:27:48;70.80;;;40.92;;
62006;SDS011;47963;53.008;6.754;2022-12-26T05:30:32;67.38;;;41.08;;
62006;SDS011;47963;53.008;6.754;2022-12-26T05:32:57;70.07;;;40.65;;
62006;SDS011;47963;53.008;6.754;2022-12-26T05:35:42;67.35;;;41.33;;
62006;SDS011;47963;53.008;6.754;2022-12-26T05:38:08;67.32;;;41.70;;
62006;SDS011;47963;53.008;6.754;2022-12-26T05:40:35;65.10;;;41.58;;
62006;SDS011;47963;53.008;6.754;2022-12-26T05:43:00;63.55;;;39.13;;
62006;SDS011;47963;53.008;6.754;2022-12-26T05:45:26;61.55;;;39.10;;
62006;SDS011;47963;53.008;6.754;2022-12-26T05:47:58;60.97;;;37.33;;
62006;SDS011;47963;53.008;6.754;2022-12-26T05:50:24;59.58;;;38.22;;
62006;SDS011;47963;53.008;6.754;2022-12-26T05:52:50;58.40;;;36.30;;
62006;SDS011;47963;53.008;6.754;2022-12-26T05:55:16;60.78;;;37.58;;
62006;SDS011;47963;53.008;6.754;2022-12-26T05:57:41;60.95;;;38.13;;
62006;SDS011;47963;53.008;6.754;2022-12-26T06:00:07;62.42;;;37.90;;
62006;SDS011;47963;53.008;6.754;2022-12-26T06:02:33;62.05;;;37.03;;
62006;SDS011;47963;53.008;6.754;2022-12-26T06:04:59;60.97;;;36.83;;
62006;SDS011;47963;53.008;6.754;2022-12-26T06:07:24;62.22;;;38.58;;
62006;SDS011;47963;53.008;6.754;2022-12-26T06:09:50;59.63;;;37.75;;
62006;SDS011;47963;53.008;6.754;2022-12-26T06:12:16;63.97;;;37.30;;
62006;SDS011;47963;53.008;6.754;2022-12-26T06:14:41;59.97;;;37.65;;
62006;SDS011;47963;53.008;6.754;2022-12-26T06:17:07;60.20;;;37.60;;
62006;SDS011;47963;53.008;6.754;2022-12-26T06:19:33;63.28;;;37.30;;
62006;SDS011;47963;53.008;6.754;2022-12-26T06:21:58;60.20;;;37.35;;
62006;SDS011;47963;53.008;6.754;2022-12-26T06:24:24;59.97;;;37.05;;
62006;SDS011;47963;53.008;6.754;2022-12-26T06:26:49;58.85;;;37.65;;
62006;SDS011;47963;53.008;6.754;2022-12-26T06:29:15;58.80;;;37.75;;
62006;SDS011;47963;53.008;6.754;2022-12-26T06:31:41;56.22;;;36.70;;
62006;SDS011;47963;53.008;6.754;2022-12-26T06:34:06;59.60;;;37.25;;
62006;SDS011;47963;53.008;6.754;2022-12-26T06:36:34;55.70;;;35.30;;
62006;SDS011;47963;53.008;6.754;2022-12-26T06:39:00;55.38;;;35.85;;
62006;SDS011;47963;53.008;6.754;2022-12-26T06:41:26;55.70;;;35.53;;
62006;SDS011;47963;53.008;6.754;2022-12-26T06:43:52;56.22;;;36.38;;
62006;SDS011;47963;53.008;6.754;2022-12-26T06:46:19;54.95;;;36.00;;
62006;SDS011;47963;53.008;6.754;2022-12-26T06:48:46;55.10;;;34.05;;
62006;SDS011;47963;53.008;6.754;2022-12-26T06:51:19;54.47;;;34.47;;
62006;SDS011;47963;53.008;6.754;2022-12-26T06:53:49;51.80;;;33.72;;
62006;SDS011;47963;53.008;6.754;2022-12-26T06:56:17;53.67;;;36.15;;
62006;SDS011;47963;53.008;6.754;2022-12-26T06:58:45;49.25;;;32.10;;
62006;SDS011;47963;53.008;6.754;2022-12-26T07:01:12;49.33;;;32.35;;
62006;SDS011;47963;53.008;6.754;2022-12-26T07:03:40;48.97;;;32.47;;
62006;SDS011;47963;53.008;6.754;2022-12-26T07:06:19;48.33;;;31.42;;
62006;SDS011;47963;53.008;6.754;2022-12-26T07:08:45;48.00;;;28.98;;
62006;SDS011;47963;53.008;6.754;2022-12-26T07:11:12;46.55;;;30.08;;
62006;SDS011;47963;53.008;6.754;2022-12-26T07:13:39;49.28;;;31.55;;
62006;SDS011;47963;53.008;6.754;2022-12-26T07:16:05;44.75;;;29.60;;
62006;SDS011;47963;53.008;6.754;2022-12-26T07:18:31;43.58;;;29.55;;
62006;SDS011;47963;53.008;6.754;2022-12-26T07:20:57;44.22;;;29.27;;
62006;SDS011;47963;53.008;6.754;2022-12-26T07:23:22;43.40;;;29.40;;
62006;SDS011;47963;53.008;6.754;2022-12-26T07:25:48;44.30;;;29.35;;
62006;SDS011;47963;53.008;6.754;2022-12-26T07:28:14;43.63;;;28.38;;
62006;SDS011;47963;53.008;6.754;2022-12-26T07:30:46;40.45;;;26.77;;
62006;SDS011;47963;53.008;6.754;2022-12-26T07:33:13;38.58;;;26.23;;
62006;SDS011;47963;53.008;6.754;2022-12-26T07:35:39;41.35;;;27.73;;
62006;SDS011;47963;53.008;6.754;2022-12-26T07:38:05;41.30;;;28.08;;
62006;SDS011;47963;53.008;6.754;2022-12-26T07:40:30;40.78;;;25.20;;
62006;SDS011;47963;53.008;6.754;2022-12-26T07:42:56;36.15;;;24.50;;
62006;SDS011;47963;53.008;6.754;2022-12-26T07:45:22;35.92;;;24.25;;
62006;SDS011;47963;53.008;6.754;2022-12-26T07:47:47;39.60;;;25.98;;
62006;SDS011;47963;53.008;6.754;2022-12-26T07:50:19;35.40;;;24.73;;
62006;SDS011;47963;53.008;6.754;2022-12-26T07:52:45;37.38;;;25.45;;
62006;SDS011;47963;53.008;6.754;2022-12-26T07:55:10;39.35;;;26.77;;
62006;SDS011;47963;53.008;6.754;2022-12-26T07:57:36;37.75;;;25.52;;
62006;SDS011;47963;53.008;6.754;2022-12-26T08:00:02;42.08;;;26.05;;
62006;SDS011;47963;53.008;6.754;2022-12-26T08:02:29;41.72;;;26.95;;
62006;SDS011;47963;53.008;6.754;2022-12-26T08:04:55;47.75;;;28.10;;
62006;SDS011;47963;53.008;6.754;2022-12-26T08:07:21;40.22;;;26.83;;
62006;SDS011;47963;53.008;6.754;2022-12-26T08:09:46;43.90;;;27.40;;
62006;SDS011;47963;53.008;6.754;2022-12-26T08:12:12;41.67;;;27.05;;
62006;SDS011;47963;53.008;6.754;2022-12-26T08:14:38;39.20;;;26.58;;
62006;SDS011;47963;53.008;6.754;2022-12-26T08:17:04;39.00;;;26.08;;
62006;SDS011;47963;53.008;6.754;2022-12-26T08:19:31;41.83;;;27.25;;
62006;SDS011;47963;53.008;6.754;2022-12-26T08:21:57;39.55;;;27.40;;
62006;SDS011;47963;53.008;6.754;2022-12-26T08:24:23;40.75;;;26.90;;
62006;SDS011;47963;53.008;6.754;2022-12-26T08:26:49;40.85;;;26.30;;
62006;SDS011;47963;53.008;6.754;2022-12-26T08:29:14;38.67;;;25.85;;
62006;SDS011;47963;53.008;6.754;2022-12-26T08:31:40;39.25;;;26.30;;
62006;SDS011;47963;53.008;6.754;2022-12-26T08:34:06;38.95;;;25.08;;
62006;SDS011;47963;53.008;6.754;2022-12-26T08:36:32;41.08;;;26.88;;
62006;SDS011;47963;53.008;6.754;2022-12-26T08:38:57;39.05;;;24.90;;
62006;SDS011;47963;53.008;6.754;2022-12-26T08:41:23;36.47;;;25.60;;
62006;SDS011;47963;53.008;6.754;2022-12-26T08:43:49;38.85;;;25.05;;
62006;SDS011;47963;53.008;6.754;2022-12-26T08:46:17;37.50;;;23.83;;
62006;SDS011;47963;53.008;6.754;2022-12-26T08:48:44;36.03;;;24.60;;
62006;SDS011;47963;53.008;6.754;2022-12-26T08:51:14;37.78;;;23.45;;
62006;SDS011;47963;53.008;6.754;2022-12-26T08:53:41;30.38;;;21.05;;
62006;SDS011;47963;53.008;6.754;2022-12-26T08:56:09;32.63;;;20.45;;
62006;SDS011;47963;53.008;6.754;2022-12-26T08:58:38;33.17;;;20.92;;
62006;SDS011;47963;53.008;6.754;2022-12-26T09:01:06;28.10;;;19.02;;
62006;SDS011;47963;53.008;6.754;2022-12-26T09:03:35;31.15;;;18.88;;
62006;SDS011;47963;53.008;6.754;2022-12-26T09:06:00;27.67;;;18.05;;
62006;SDS011;47963;53.008;6.754;2022-12-26T09:08:30;29.27;;;19.55;;
62006;SDS011;47963;53.008;6.754;2022-12-26T09:11:04;25.13;;;16.70;;
62006;SDS011;47963;53.008;6.754;2022-12-26T09:13:40;25.48;;;16.70;;
62006;SDS011;47963;53.008;6.754;2022-12-26T09:16:08;26.73;;;15.50;;
62006;SDS011;47963;53.008;6.754;2022-12-26T09:18:39;24.63;;;15.90;;
62006;SDS011;47963;53.008;6.754;2022-12-26T09:21:06;26.95;;;15.30;;
62006;SDS011;47963;53.008;6.754;2022-12-26T09:23:33;27.42;;;14.90;;
62006;SDS011;47963;53.008;6.754;2022-12-26T09:26:07;26.30;;;16.05;;
62006;SDS011;47963;53.008;6.754;2022-12-26T09:28:35;26.95;;;15.02;;
62006;SDS011;47963;53.008;6.754;2022-12-26T09:31:02;23.35;;;14.43;;
62006;SDS011;47963;53.008;6.754;2022-12-26T09:33:31;26.40;;;14.40;;
62006;SDS011;47963;53.008;6.754;2022-12-26T09:36:02;21.05;;;13.88;;
62006;SDS011;47963;53.008;6.754;2022-12-26T09:46:27;22.67;;;13.15;;
62006;SDS011;47963;53.008;6.754;2022-12-26T09:49:02;20.75;;;13.50;;
62006;SDS011;47963;53.008;6.754;2022-12-26T09:51:35;20.73;;;12.68;;
62006;SDS011;47963;53.008;6.754;2022-12-26T09:54:04;19.67;;;11.48;;
62006;SDS011;47963;53.008;6.754;2022-12-26T09:56:35;24.70;;;11.20;;
62006;SDS011;47963;53.008;6.754;2022-12-26T09:59:10;18.38;;;10.63;;
62006;SDS011;47963;53.008;6.754;2022-12-26T10:01:39;21.00;;;10.57;;
62006;SDS011;47963;53.008;6.754;2022-12-26T10:04:12;22.88;;;10.93;;
62006;SDS011;47963;53.008;6.754;2022-12-26T10:06:53;18.10;;;10.88;;
62006;SDS011;47963;53.008;6.754;2022-12-26T10:14:35;19.20;;;7.45;;
62006;SDS011;47963;53.008;6.754;2022-12-26T10:17:04;25.17;;;6.55;;
62006;SDS011;47963;53.008;6.754;2022-12-26T10:25:17;21.95;;;4.28;;
62006;SDS011;47963;53.008;6.754;2022-12-26T10:27:47;23.65;;;4.50;;
62006;SDS011;47963;53.008;6.754;2022-12-26T10:30:17;21.90;;;4.10;;
62006;SDS011;47963;53.008;6.754;2022-12-26T10:32:47;18.03;;;4.30;;
62006;SDS011;47963;53.008;6.754;2022-12-26T10:35:35;15.93;;;3.70;;
62006;SDS011;47963;53.008;6.754;2022-12-26T10:38:08;17.20;;;3.72;;
62006;SDS011;47963;53.008;6.754;2022-12-26T10:40:42;20.02;;;3.70;;
62006;SDS011;47963;53.008;6.754;2022-12-26T10:43:15;21.92;;;3.60;;
62006;SDS011;47963;53.008;6.754;2022-12-26T10:48:32;21.35;;;3.85;;
62006;SDS011;47963;53.008;6.754;2022-12-26T10:50:58;19.23;;;3.53;;
62006;SDS011;47963;53.008;6.754;2022-12-26T10:53:23;20.55;;;3.33;;
62006;SDS011;47963;53.008;6.754;2022-12-26T10:55:49;19.27;;;3.10;;
62006;SDS011;47963;53.008;6.754;2022-12-26T11:00:49;16.67;;;2.72;;
62006;SDS011;47963;53.008;6.754;2022-12-26T11:03:16;20.50;;;3.10;;
62006;SDS011;47963;53.008;6.754;2022-12-26T11:05:45;13.15;;;2.97;;
62006;SDS011;47963;53.008;6.754;2022-12-26T11:08:21;17.48;;;2.42;;
62006;SDS011;47963;53.008;6.754;2022-12-26T11:10:59;14.73;;;2.50;;
62006;SDS011;47963;53.008;6.754;2022-12-26T11:13:28;11.48;;;2.35;;
62006;SDS011;47963;53.008;6.754;2022-12-26T11:15:57;12.13;;;1.90;;
62006;SDS011;47963;53.008;6.754;2022-12-26T11:21:13;14.60;;;2.10;;
62006;SDS011;47963;53.008;6.754;2022-12-26T11:23:43;13.45;;;2.08;;
62006;SDS011;47963;53.008;6.754;2022-12-26T11:26:17;16.75;;;2.97;;
62006;SDS011;47963;53.008;6.754;2022-12-26T11:28:50;14.20;;;2.28;;
62006;SDS011;47963;53.008;6.754;2022-12-26T11:31:38;20.80;;;3.35;;
62006;SDS011;47963;53.008;6.754;2022-12-26T11:34:07;16.65;;;3.22;;
62006;SDS011;47963;53.008;6.754;2022-12-26T11:36:44;17.13;;;3.20;;
62006;SDS011;47963;53.008;6.754;2022-12-26T11:39:20;13.75;;;2.15;;
62006;SDS011;47963;53.008;6.754;2022-12-26T11:41:51;13.63;;;2.10;;
62006;SDS011;47963;53.008;6.754;2022-12-26T11:44:21;14.98;;;2.30;;
62006;SDS011;47963;53.008;6.754;2022-12-26T11:46:49;13.05;;;2.92;;
62006;SDS011;47963;53.008;6.754;2022-12-26T11:49:17;14.50;;;2.40;;
62006;SDS011;47963;53.008;6.754;2022-12-26T11:51:54;13.63;;;2.80;;
62006;SDS011;47963;53.008;6.754;2022-12-26T11:57:01;11.23;;;2.22;;
62006;SDS011;47963;53.008;6.754;2022-12-26T11:59:34;12.65;;;2.83;;
62006;SDS011;47963;53.008;6.754;2022-12-26T12:04:53;16.33;;;3.10;;
62006;SDS011;47963;53.008;6.754;2022-12-26T12:12:50;15.07;;;2.67;;
62006;SDS011;47963;53.008;6.754;2022-12-26T12:15:43;16.40;;;2.97;;
62006;SDS011;47963;53.008;6.754;2022-12-26T12:18:35;17.67;;;2.80;;
62006;SDS011;47963;53.008;6.754;2022-12-26T12:26:55;19.60;;;3.13;;
62006;SDS011;47963;53.008;6.754;2022-12-26T12:29:46;18.52;;;3.78;;
62006;SDS011;47963;53.008;6.754;2022-12-26T12:32:26;19.85;;;3.28;;
62006;SDS011;47963;53.008;6.754;2022-12-26T12:45:36;20.00;;;3.17;;
62006;SDS011;47963;53.008;6.754;2022-12-26T12:51:51;15.88;;;3.15;;
62006;SDS011;47963;53.008;6.754;2022-12-26T12:56:37;21.98;;;3.90;;
62006;SDS011;47963;53.008;6.754;2022-12-26T13:01:43;20.87;;;3.57;;
62006;SDS011;47963;53.008;6.754;2022-12-26T13:04:16;18.50;;;3.95;;
62006;SDS011;47963;53.008;6.754;2022-12-26T13:06:51;20.10;;;3.65;;
62006;SDS011;47963;53.008;6.754;2022-12-26T13:09:31;17.17;;;3.65;;
62006;SDS011;47963;53.008;6.754;2022-12-26T13:12:02;22.08;;;4.50;;
62006;SDS011;47963;53.008;6.754;2022-12-26T13:14:37;22.02;;;3.42;;
62006;SDS011;47963;53.008;6.754;2022-12-26T13:17:08;22.10;;;4.10;;
62006;SDS011;47963;53.008;6.754;2022-12-26T13:22:17;17.77;;;3.47;;
62006;SDS011;47963;53.008;6.754;2022-12-26T13:24:55;19.85;;;3.53;;
62006;SDS011;47963;53.008;6.754;2022-12-26T13:27:28;19.35;;;3.95;;
62006;SDS011;47963;53.008;6.754;2022-12-26T13:29:57;22.80;;;4.00;;
62006;SDS011;47963;53.008;6.754;2022-12-26T13:32:24;19.17;;;3.78;;
62006;SDS011;47963;53.008;6.754;2022-12-26T13:34:58;19.10;;;3.70;;
62006;SDS011;47963;53.008;6.754;2022-12-26T13:39:57;18.90;;;3.95;;
62006;SDS011;47963;53.008;6.754;2022-12-26T13:42:30;22.83;;;3.20;;
62006;SDS011;47963;53.008;6.754;2022-12-26T13:48:01;17.85;;;3.20;;
62006;SDS011;47963;53.008;6.754;2022-12-26T13:50:51;17.60;;;3.35;;
62006;SDS011;47963;53.008;6.754;2022-12-26T13:55:51;17.58;;;3.28;;
62006;SDS011;47963;53.008;6.754;2022-12-26T14:18:13;19.42;;;3.75;;
62006;SDS011;47963;53.008;6.754;2022-12-26T14:26:06;19.05;;;3.22;;
62006;SDS011;47963;53.008;6.754;2022-12-26T14:39:55;17.85;;;3.58;;
62006;SDS011;47963;53.008;6.754;2022-12-26T14:42:30;19.73;;;3.17;;
62006;SDS011;47963;53.008;6.754;2022-12-26T14:50:48;15.98;;;4.20;;
62006;SDS011;47963;53.008;6.754;2022-12-26T14:55:53;19.20;;;3.85;;
62006;SDS011;47963;53.008;6.754;2022-12-26T15:34:07;18.35;;;3.88;;
62006;SDS011;47963;53.008;6.754;2022-12-26T15:37:05;18.63;;;4.03;;
62006;SDS011;47963;53.008;6.754;2022-12-26T15:39:41;17.08;;;3.70;;
62006;SDS011;47963;53.008;6.754;2022-12-26T15:47:51;19.30;;;5.40;;
62006;SDS011;47963;53.008;6.754;2022-12-26T15:50:27;18.38;;;4.25;;
62006;SDS011;47963;53.008;6.754;2022-12-26T15:53:21;17.60;;;3.88;;
62006;SDS011;47963;53.008;6.754;2022-12-26T16:01:40;20.10;;;3.47;;
62006;SDS011;47963;53.008;6.754;2022-12-26T16:04:51;18.27;;;3.88;;
62006;SDS011;47963;53.008;6.754;2022-12-26T16:10:45;14.40;;;4.25;;
62006;SDS011;47963;53.008;6.754;2022-12-26T16:13:04;16.35;;;4.00;;
62006;SDS011;47963;53.008;6.754;2022-12-26T16:15:59;18.40;;;4.30;;
62006;SDS011;47963;53.008;6.754;2022-12-26T16:18:26;20.27;;;4.68;;
62006;SDS011;47963;53.008;6.754;2022-12-26T16:20:55;17.67;;;4.20;;
62006;SDS011;47963;53.008;6.754;2022-12-26T16:23:48;18.63;;;6.43;;
62006;SDS011;47963;53.008;6.754;2022-12-26T16:26:20;23.25;;;4.20;;
62006;SDS011;47963;53.008;6.754;2022-12-26T16:28:53;20.25;;;4.10;;
62006;SDS011;47963;53.008;6.754;2022-12-26T16:31:25;17.02;;;4.03;;
62006;SDS011;47963;53.008;6.754;2022-12-26T16:33:56;16.23;;;4.40;;
62006;SDS011;47963;53.008;6.754;2022-12-26T16:36:26;17.23;;;3.75;;
62006;SDS011;47963;53.008;6.754;2022-12-26T16:38:54;17.17;;;3.38;;
62006;SDS011;47963;53.008;6.754;2022-12-26T16:41:21;16.80;;;3.85;;
62006;SDS011;47963;53.008;6.754;2022-12-26T16:43:49;18.38;;;3.83;;
62006;SDS011;47963;53.008;6.754;2022-12-26T16:46:16;15.55;;;3.80;;
62006;SDS011;47963;53.008;6.754;2022-12-26T16:48:43;16.35;;;4.05;;
62006;SDS011;47963;53.008;6.754;2022-12-26T16:54:15;15.95;;;3.50;;
62006;SDS011;47963;53.008;6.754;2022-12-26T16:57:04;16.20;;;3.58;;
62006;SDS011;47963;53.008;6.754;2022-12-26T17:02:40;18.70;;;3.90;;
62006;SDS011;47963;53.008;6.754;2022-12-26T17:07:50;18.02;;;4.25;;
62006;SDS011;47963;53.008;6.754;2022-12-26T17:10:25;18.33;;;3.90;;
62006;SDS011;47963;53.008;6.754;2022-12-26T17:12:55;15.60;;;3.47;;
62006;SDS011;47963;53.008;6.754;2022-12-26T17:15:24;20.15;;;3.50;;
62006;SDS011;47963;53.008;6.754;2022-12-26T17:17:52;15.80;;;2.80;;
62006;SDS011;47963;53.008;6.754;2022-12-26T17:22:54;15.73;;;3.33;;
62006;SDS011;47963;53.008;6.754;2022-12-26T17:30:33;15.23;;;3.35;;
62006;SDS011;47963;53.008;6.754;2022-12-26T17:33:04;17.83;;;3.90;;
62006;SDS011;47963;53.008;6.754;2022-12-26T17:35:43;15.52;;;3.78;;
62006;SDS011;47963;53.008;6.754;2022-12-26T17:40:49;15.75;;;3.35;;
62006;SDS011;47963;53.008;6.754;2022-12-26T17:43:28;16.40;;;3.85;;
62006;SDS011;47963;53.008;6.754;2022-12-26T17:46:01;14.80;;;3.65;;
62006;SDS011;47963;53.008;6.754;2022-12-26T17:48:27;17.13;;;4.00;;
62006;SDS011;47963;53.008;6.754;2022-12-26T17:50:54;19.15;;;4.32;;
62006;SDS011;47963;53.008;6.754;2022-12-26T17:55:51;16.88;;;3.83;;
62006;SDS011;47963;53.008;6.754;2022-12-26T17:58:19;16.92;;;3.50;;
62006;SDS011;47963;53.008;6.754;2022-12-26T18:00:45;16.17;;;4.28;;
62006;SDS011;47963;53.008;6.754;2022-12-26T18:03:11;16.10;;;3.50;;
62006;SDS011;47963;53.008;6.754;2022-12-26T18:05:37;16.92;;;4.30;;
62006;SDS011;47963;53.008;6.754;2022-12-26T18:08:03;15.57;;;3.15;;
62006;SDS011;47963;53.008;6.754;2022-12-26T18:10:31;19.17;;;4.80;;
62006;SDS011;47963;53.008;6.754;2022-12-26T18:12:59;18.33;;;3.80;;
62006;SDS011;47963;53.008;6.754;2022-12-26T18:15:25;15.65;;;4.00;;
62006;SDS011;47963;53.008;6.754;2022-12-26T18:17:53;14.07;;;3.55;;
62006;SDS011;47963;53.008;6.754;2022-12-26T18:20:20;14.40;;;3.55;;
62006;SDS011;47963;53.008;6.754;2022-12-26T18:22:49;16.92;;;3.20;;
62006;SDS011;47963;53.008;6.754;2022-12-26T18:25:17;17.40;;;4.35;;
62006;SDS011;47963;53.008;6.754;2022-12-26T18:27:45;15.07;;;2.95;;
62006;SDS011;47963;53.008;6.754;2022-12-26T18:30:15;11.88;;;2.90;;
62006;SDS011;47963;53.008;6.754;2022-12-26T18:32:46;13.90;;;3.30;;
62006;SDS011;47963;53.008;6.754;2022-12-26T18:35:13;18.40;;;3.95;;
62006;SDS011;47963;53.008;6.754;2022-12-26T18:37:39;12.63;;;3.35;;
62006;SDS011;47963;53.008;6.754;2022-12-26T18:40:19;15.68;;;3.22;;
62006;SDS011;47963;53.008;6.754;2022-12-26T18:42:51;17.23;;;3.03;;
62006;SDS011;47963;53.008;6.754;2022-12-26T18:45:17;15.88;;;3.38;;
62006;SDS011;47963;53.008;6.754;2022-12-26T18:47:42;15.50;;;3.78;;